createdAt,value
2018-06-23T00:00:36.800Z,77.97
2018-06-23T00:01:36.787Z,77.86
2018-06-23T00:02:36.841Z,77.76
2018-06-23T00:03:36.764Z,77.97
2018-06-23T00:04:36.750Z,77.76
2018-06-23T00:05:36.738Z,77.66
2018-06-23T00:06:36.732Z,77.56
2018-06-23T00:07:36.799Z,78.07
2018-06-23T00:08:36.709Z,78.38
2018-06-23T00:09:36.697Z,78.27
2018-06-23T00:10:36.684Z,78.48
2018-06-23T00:11:36.670Z,78.17
2018-06-23T00:12:36.665Z,78.72
2018-06-23T00:13:36.726Z,78.31
2018-06-23T00:14:36.644Z,78.99
2018-06-23T00:15:36.631Z,78.61
2018-06-23T00:16:36.615Z,79.02
2018-06-23T00:17:36.609Z,79.43
2018-06-23T00:18:36.666Z,79.43
2018-06-23T00:19:36.586Z,78.96
2018-06-23T00:20:36.574Z,79.74
2018-06-23T00:21:36.557Z,79.53
2018-06-23T00:22:36.553Z,79.84
2018-06-23T00:23:36.607Z,79.64
2018-06-23T00:24:36.533Z,79.78
2018-06-23T00:25:36.637Z,79.78
2018-06-23T00:26:36.504Z,79.74
2018-06-23T00:27:36.494Z,79.84
2018-06-23T00:28:36.549Z,79.47
2018-06-23T00:29:36.469Z,79.78
2018-06-23T00:30:36.455Z,79.74
2018-06-23T00:31:36.458Z,79.68
2018-06-23T00:32:36.446Z,79.88
2018-06-23T00:33:36.481Z,80.08
2018-06-23T00:34:36.418Z,80.29
2018-06-23T00:35:36.402Z,80.08
2018-06-23T00:36:36.389Z,80.19
2018-06-23T00:37:36.379Z,80.19
2018-06-23T00:38:36.431Z,80.29
2018-06-23T00:39:36.355Z,80.43
2018-06-23T00:40:36.349Z,80.08
2018-06-23T00:41:36.334Z,80.29
2018-06-23T00:42:36.328Z,80.29
2018-06-23T00:43:36.373Z,80.43
2018-06-23T00:44:36.297Z,80.53
2018-06-23T00:45:36.295Z,80.33
2018-06-23T00:46:36.280Z,80.43
2018-06-23T00:47:36.281Z,80.33
2018-06-23T00:48:36.347Z,80.80
2018-06-23T00:49:36.245Z,80.94
2018-06-23T00:50:36.238Z,80.63
2018-06-23T00:51:36.225Z,80.53
2018-06-23T00:52:36.219Z,80.83
2018-06-23T00:53:36.199Z,81.04
2018-06-23T00:54:36.268Z,81.15
2018-06-23T00:55:36.178Z,81.24
2018-06-23T00:56:36.168Z,82.10
2018-06-23T00:57:36.158Z,81.79
2018-06-23T00:58:36.148Z,81.38
2018-06-23T00:59:36.207Z,81.49
2018-06-23T01:00:36.133Z,81.90
2018-06-23T01:01:36.124Z,81.70
2018-06-23T01:02:36.101Z,82.55
2018-06-23T01:03:36.092Z,81.84
2018-06-23T01:04:36.149Z,82.14
2018-06-23T01:05:36.073Z,82.24
2018-06-23T01:06:36.060Z,82.04
2018-06-23T01:07:36.049Z,83.27
2018-06-23T01:08:36.043Z,82.76
2018-06-23T01:09:36.092Z,82.55
2018-06-23T01:10:36.020Z,82.55
2018-06-23T01:11:36.008Z,82.55
2018-06-23T01:12:35.998Z,82.65
2018-06-23T01:13:35.986Z,82.86
2018-06-23T01:14:36.049Z,82.14
2018-06-23T01:15:35.961Z,82.24
2018-06-23T01:16:35.951Z,83.37
2018-06-23T01:17:35.943Z,82.14
2018-06-23T01:18:35.930Z,82.76
2018-06-23T01:19:35.989Z,82.55
2018-06-23T01:20:35.908Z,82.86
2018-06-23T01:21:35.898Z,82.96
2018-06-23T01:22:35.890Z,82.96
2018-06-23T01:23:35.880Z,83.27
2018-06-23T01:24:35.933Z,83.06
2018-06-23T01:25:35.853Z,83.10
2018-06-23T01:26:35.844Z,83.61
2018-06-23T01:27:35.830Z,83.06
2018-06-23T01:28:35.820Z,83.27
2018-06-23T01:29:35.822Z,83.72
2018-06-23T01:30:35.863Z,83.51
2018-06-23T01:31:35.790Z,84.95
2018-06-23T01:32:35.779Z,84.12
2018-06-23T01:33:35.767Z,84.95
2018-06-23T01:34:35.758Z,84.03
2018-06-23T01:35:35.803Z,84.33
2018-06-23T01:36:35.736Z,84.84
2018-06-23T01:37:35.730Z,84.95
2018-06-23T01:38:35.713Z,84.33
2018-06-23T01:39:35.706Z,84.64
2018-06-23T01:40:35.760Z,84.84
2018-06-23T01:41:35.687Z,84.44
2018-06-23T01:42:35.673Z,84.53
2018-06-23T01:43:35.659Z,84.74
2018-06-23T01:44:35.646Z,84.19
2018-06-23T01:45:35.707Z,83.92
2018-06-23T01:46:35.628Z,83.92
2018-06-23T01:47:35.622Z,83.68
2018-06-23T01:48:35.607Z,84.80
2018-06-23T01:49:35.592Z,84.95
2018-06-23T01:50:35.653Z,84.44
2018-06-23T01:51:35.574Z,84.29
2018-06-23T01:52:35.566Z,84.12
2018-06-23T01:53:35.548Z,84.53
2018-06-23T01:54:35.539Z,84.53
2018-06-23T01:55:35.534Z,84.33
2018-06-23T01:56:35.588Z,84.64
2018-06-23T01:57:35.508Z,84.33
2018-06-23T01:58:35.499Z,84.60
2018-06-23T01:59:35.490Z,84.12
2018-06-23T02:00:35.480Z,84.64
2018-06-23T02:01:35.525Z,84.44
2018-06-23T02:02:35.453Z,84.23
2018-06-23T02:03:35.441Z,84.23
2018-06-23T02:04:35.435Z,84.64
2018-06-23T02:05:35.421Z,84.23
2018-06-23T02:06:35.478Z,84.44
2018-06-23T02:07:35.400Z,84.53
2018-06-23T02:08:35.392Z,84.23
2018-06-23T02:09:35.382Z,84.33
2018-06-23T02:10:35.368Z,84.33
2018-06-23T02:11:35.420Z,84.12
2018-06-23T02:12:35.349Z,84.23
2018-06-23T02:13:35.336Z,84.03
2018-06-23T02:14:35.324Z,85.15
2018-06-23T02:15:35.313Z,84.64
2018-06-23T02:16:35.367Z,84.84
2018-06-23T02:17:35.296Z,84.84
2018-06-23T02:18:35.282Z,84.99
2018-06-23T02:19:35.273Z,84.95
2018-06-23T02:20:35.253Z,84.74
2018-06-23T02:21:35.324Z,84.64
2018-06-23T02:22:35.233Z,84.84
2018-06-23T02:23:35.225Z,84.84
2018-06-23T02:24:35.214Z,85.19
2018-06-23T02:25:35.204Z,84.88
2018-06-23T02:26:35.246Z,84.78
2018-06-23T02:27:35.186Z,84.88
2018-06-23T02:28:35.177Z,84.88
2018-06-23T02:29:35.256Z,84.88
2018-06-23T02:30:35.150Z,84.78
2018-06-23T02:31:35.212Z,84.78
2018-06-23T02:32:35.131Z,84.99
2018-06-23T02:33:35.123Z,84.88
2018-06-23T02:34:35.105Z,85.19
2018-06-23T02:35:35.095Z,84.88
2018-06-23T02:36:35.158Z,84.99
2018-06-23T02:37:35.072Z,84.88
2018-06-23T02:38:35.066Z,84.78
2018-06-23T02:39:35.062Z,85.30
2018-06-23T02:40:35.045Z,85.50
2018-06-23T02:41:35.041Z,84.88
2018-06-23T02:42:35.118Z,85.09
2018-06-23T02:43:35.005Z,85.50
2018-06-23T02:44:35.003Z,85.60
2018-06-23T02:45:35.005Z,85.60
2018-06-23T02:46:34.980Z,86.36
2018-06-23T02:47:35.029Z,86.25
2018-06-23T02:48:34.962Z,86.05
2018-06-23T02:49:34.949Z,86.11
2018-06-23T02:50:34.938Z,86.15
2018-06-23T02:51:34.935Z,86.25
2018-06-23T02:52:34.984Z,86.36
2018-06-23T02:53:34.904Z,86.15
2018-06-23T02:54:34.887Z,86.15
2018-06-23T02:55:34.879Z,86.25
2018-06-23T02:56:34.875Z,86.05
2018-06-23T02:57:34.951Z,86.66
2018-06-23T02:58:34.851Z,86.77
2018-06-23T02:59:34.841Z,86.57
2018-06-23T03:00:34.831Z,86.36
2018-06-23T03:01:34.818Z,86.36
2018-06-23T03:02:34.863Z,86.66
2018-06-23T03:03:34.800Z,86.22
2018-06-23T03:04:34.788Z,86.01
2018-06-23T03:05:34.775Z,86.57
2018-06-23T03:06:34.761Z,86.98
2018-06-23T03:07:34.821Z,86.36
2018-06-23T03:08:34.750Z,86.57
2018-06-23T03:09:34.739Z,86.98
2018-06-23T03:10:34.722Z,86.36
2018-06-23T03:11:34.702Z,86.25
2018-06-23T03:12:34.778Z,86.66
2018-06-23T03:13:34.689Z,86.15
2018-06-23T03:14:34.679Z,86.87
2018-06-23T03:15:34.680Z,86.87
2018-06-23T03:16:34.653Z,86.77
2018-06-23T03:17:34.646Z,86.87
2018-06-23T03:18:34.704Z,86.98
2018-06-23T03:19:34.623Z,86.87
2018-06-23T03:20:34.608Z,86.87
2018-06-23T03:21:34.614Z,86.87
2018-06-23T03:22:34.588Z,87.12
2018-06-23T03:23:34.638Z,86.91
2018-06-23T03:24:34.562Z,87.08
2018-06-23T03:25:34.560Z,87.22
2018-06-23T03:26:34.540Z,87.22
2018-06-23T03:27:34.531Z,86.98
2018-06-23T03:28:34.585Z,87.38
2018-06-23T03:29:34.511Z,86.87
2018-06-23T03:30:34.508Z,86.66
2018-06-23T03:31:34.492Z,86.77
2018-06-23T03:32:34.480Z,86.57
2018-06-23T03:33:34.542Z,86.25
2018-06-23T03:34:34.456Z,86.66
2018-06-23T03:35:34.448Z,86.66
2018-06-23T03:36:34.435Z,86.66
2018-06-23T03:37:34.426Z,86.36
2018-06-23T03:38:34.487Z,86.15
2018-06-23T03:39:34.407Z,86.25
2018-06-23T03:40:34.391Z,86.57
2018-06-23T03:41:34.383Z,86.36
2018-06-23T03:42:34.370Z,86.77
2018-06-23T03:43:34.432Z,86.36
2018-06-23T03:44:34.341Z,86.66
2018-06-23T03:45:34.331Z,86.87
2018-06-23T03:46:34.325Z,86.66
2018-06-23T03:47:34.338Z,87.02
2018-06-23T03:48:34.393Z,87.22
2018-06-23T03:49:34.298Z,86.71
2018-06-23T03:50:34.280Z,87.02
2018-06-23T03:51:34.270Z,86.98
2018-06-23T03:52:34.259Z,86.57
2018-06-23T03:53:34.253Z,86.81
2018-06-23T03:54:34.305Z,86.91
2018-06-23T03:55:34.232Z,86.57
2018-06-23T03:56:34.215Z,87.08
2018-06-23T03:57:34.206Z,86.91
2018-06-23T03:58:34.199Z,86.66
2018-06-23T03:59:34.254Z,86.66
2018-06-23T04:00:34.176Z,87.02
2018-06-23T04:01:34.164Z,86.40
2018-06-23T04:02:34.154Z,86.30
2018-06-23T04:03:34.141Z,86.36
2018-06-23T04:04:34.194Z,87.02
2018-06-23T04:05:34.128Z,86.46
2018-06-23T04:06:34.115Z,86.57
2018-06-23T04:07:34.099Z,86.87
2018-06-23T04:08:34.088Z,86.36
2018-06-23T04:09:34.152Z,86.15
2018-06-23T04:10:34.071Z,86.25
2018-06-23T04:11:34.151Z,86.36
2018-06-23T04:12:34.054Z,86.15
2018-06-23T04:13:34.032Z,86.25
2018-06-23T04:14:34.031Z,86.42
2018-06-23T04:15:34.083Z,85.74
2018-06-23T04:16:34.000Z,85.64
2018-06-23T04:17:33.994Z,84.68
2018-06-23T04:18:33.981Z,85.09
2018-06-23T04:19:33.970Z,85.09
2018-06-23T04:20:34.026Z,84.37
2018-06-23T04:21:33.952Z,84.27
2018-06-23T04:22:33.931Z,84.27
2018-06-23T04:23:33.931Z,84.47
2018-06-23T04:24:33.918Z,84.33
2018-06-23T04:25:33.970Z,83.92
2018-06-23T04:26:33.887Z,83.92
2018-06-23T04:27:33.885Z,83.72
2018-06-23T04:28:33.871Z,82.90
2018-06-23T04:29:33.863Z,83.00
2018-06-23T04:30:33.940Z,83.20
2018-06-23T04:31:33.837Z,83.20
2018-06-23T04:32:33.828Z,82.49
2018-06-23T04:33:33.818Z,82.65
2018-06-23T04:34:33.810Z,82.14
2018-06-23T04:35:33.862Z,81.73
2018-06-23T04:36:33.786Z,82.04
2018-06-23T04:37:33.784Z,82.35
2018-06-23T04:38:33.759Z,81.90
2018-06-23T04:39:33.752Z,81.70
2018-06-23T04:40:33.824Z,81.70
2018-06-23T04:41:33.728Z,81.90
2018-06-23T04:42:33.720Z,81.49
2018-06-23T04:43:33.703Z,81.49
2018-06-23T04:44:33.697Z,81.38
2018-06-23T04:45:33.762Z,80.26
2018-06-23T04:46:33.667Z,80.98
2018-06-23T04:47:33.666Z,81.29
2018-06-23T04:48:33.646Z,80.67
2018-06-23T04:49:33.651Z,81.29
2018-06-23T04:50:33.717Z,81.08
2018-06-23T04:51:33.611Z,81.15
2018-06-23T04:52:33.603Z,80.94
2018-06-23T04:53:33.601Z,81.24
2018-06-23T04:54:33.583Z,80.46
2018-06-23T04:55:33.568Z,80.36
2018-06-23T04:56:33.634Z,80.57
2018-06-23T04:57:33.546Z,80.83
2018-06-23T04:58:33.534Z,80.36
2018-06-23T04:59:33.523Z,80.33
2018-06-23T05:00:33.575Z,80.22
2018-06-23T05:01:33.569Z,80.12
2018-06-23T05:02:33.495Z,80.33
2018-06-23T05:03:33.482Z,80.22
2018-06-23T05:04:33.472Z,80.22
2018-06-23T05:05:33.460Z,80.02
2018-06-23T05:06:33.525Z,79.68
2018-06-23T05:07:33.439Z,79.20
2018-06-23T05:08:33.429Z,79.68
2018-06-23T05:09:33.417Z,78.79
2018-06-23T05:10:33.403Z,80.08
2018-06-23T05:11:33.451Z,79.47
2018-06-23T05:12:33.377Z,78.34
2018-06-23T05:13:33.366Z,77.73
2018-06-23T05:14:33.356Z,78.14
2018-06-23T05:15:33.347Z,78.86
2018-06-23T05:16:33.397Z,78.14
2018-06-23T05:17:33.327Z,78.14
2018-06-23T05:18:33.319Z,78.04
2018-06-23T05:19:33.305Z,77.73
2018-06-23T05:20:33.293Z,77.53
2018-06-23T05:21:33.343Z,77.94
2018-06-23T05:22:33.270Z,77.94
2018-06-23T05:23:33.262Z,78.00
2018-06-23T05:24:33.242Z,77.49
2018-06-23T05:25:33.234Z,77.90
2018-06-23T05:26:33.299Z,77.73
2018-06-23T05:27:33.222Z,77.39
2018-06-23T05:28:33.212Z,77.49
2018-06-23T05:29:33.194Z,77.76
2018-06-23T05:30:33.183Z,77.56
2018-06-23T05:31:33.256Z,76.43
2018-06-23T05:32:33.158Z,75.71
2018-06-23T05:33:33.144Z,76.64
2018-06-23T05:34:33.136Z,76.23
2018-06-23T05:35:33.125Z,76.16
2018-06-23T05:36:33.120Z,76.53
2018-06-23T05:37:33.184Z,76.53
2018-06-23T05:38:33.089Z,76.12
2018-06-23T05:39:33.077Z,76.43
2018-06-23T05:40:33.068Z,76.33
2018-06-23T05:41:33.061Z,76.33
2018-06-23T05:42:33.113Z,77.56
2018-06-23T05:43:33.035Z,76.23
2018-06-23T05:44:33.023Z,76.37
2018-06-23T05:45:33.019Z,76.74
2018-06-23T05:46:33.005Z,77.45
2018-06-23T05:47:33.056Z,76.40
2018-06-23T05:48:32.970Z,75.78
2018-06-23T05:49:32.968Z,75.99
2018-06-23T05:50:32.952Z,75.27
2018-06-23T05:51:32.949Z,76.09
2018-06-23T05:52:33.019Z,75.89
2018-06-23T05:53:32.928Z,75.68
2018-06-23T05:54:32.909Z,76.19
2018-06-23T05:55:32.898Z,74.83
2018-06-23T05:56:32.886Z,75.75
2018-06-23T05:57:32.946Z,74.83
2018-06-23T05:58:32.869Z,75.04
2018-06-23T05:59:32.853Z,74.93
2018-06-23T06:00:32.849Z,75.04
2018-06-23T06:01:32.840Z,74.42
2018-06-23T06:02:32.878Z,74.42
2018-06-23T06:03:32.816Z,74.32
2018-06-23T06:04:32.800Z,74.63
2018-06-23T06:05:32.790Z,74.63
2018-06-23T06:06:32.775Z,74.73
2018-06-23T06:07:32.827Z,74.83
2018-06-23T06:08:32.757Z,74.93
2018-06-23T06:09:32.755Z,74.90
2018-06-23T06:10:32.733Z,74.49
2018-06-23T06:11:32.730Z,73.36
2018-06-23T06:12:32.792Z,74.38
2018-06-23T06:13:32.703Z,74.05
2018-06-23T06:14:32.695Z,74.35
2018-06-23T06:15:32.681Z,73.13
2018-06-23T06:16:32.666Z,73.03
2018-06-23T06:17:32.656Z,73.47
2018-06-23T06:18:32.710Z,73.88
2018-06-23T06:19:32.638Z,73.03
2018-06-23T06:20:32.632Z,73.43
2018-06-23T06:21:32.616Z,73.64
2018-06-23T06:22:32.603Z,74.15
2018-06-23T06:23:32.661Z,72.79
2018-06-23T06:24:32.581Z,73.54
2018-06-23T06:25:32.568Z,73.10
2018-06-23T06:26:32.562Z,73.30
2018-06-23T06:27:32.541Z,71.67
2018-06-23T06:28:32.614Z,71.56
2018-06-23T06:29:32.584Z,72.58
2018-06-23T06:30:32.517Z,73.10
2018-06-23T06:31:32.509Z,73.43
2018-06-23T06:32:32.484Z,72.69
2018-06-23T06:33:32.554Z,72.48
2018-06-23T06:34:32.472Z,72.89
2018-06-23T06:35:32.464Z,72.38
2018-06-23T06:36:32.447Z,72.28
2018-06-23T06:37:32.439Z,72.58
2018-06-23T06:38:32.484Z,73.03
2018-06-23T06:39:32.412Z,72.89
2018-06-23T06:40:32.410Z,72.58
2018-06-23T06:41:32.396Z,72.79
2018-06-23T06:42:32.385Z,71.97
2018-06-23T06:43:32.435Z,71.43
2018-06-23T06:44:32.419Z,72.04
2018-06-23T06:45:32.357Z,72.34
2018-06-23T06:46:32.339Z,72.34
2018-06-23T06:47:32.323Z,72.24
2018-06-23T06:48:32.380Z,71.63
2018-06-23T06:49:32.306Z,71.53
2018-06-23T06:50:32.293Z,71.39
2018-06-23T06:51:32.290Z,71.39
2018-06-23T06:52:32.269Z,71.12
2018-06-23T06:53:32.325Z,71.23
2018-06-23T06:54:32.254Z,71.63
2018-06-23T06:55:32.244Z,71.73
2018-06-23T06:56:32.228Z,71.73
2018-06-23T06:57:32.221Z,71.63
2018-06-23T06:58:32.199Z,72.34
2018-06-23T06:59:32.265Z,72.14
2018-06-23T07:00:32.190Z,71.73
2018-06-23T07:01:32.175Z,71.33
2018-06-23T07:02:32.160Z,71.53
2018-06-23T07:03:32.196Z,72.04
2018-06-23T07:04:32.195Z,71.73
2018-06-23T07:05:32.130Z,71.84
2018-06-23T07:06:32.114Z,72.01
2018-06-23T07:07:32.101Z,71.91
2018-06-23T07:08:32.087Z,71.70
2018-06-23T07:09:32.127Z,72.01
2018-06-23T07:10:32.066Z,72.31
2018-06-23T07:11:32.058Z,71.60
2018-06-23T07:12:32.051Z,71.56
2018-06-23T07:13:32.037Z,71.47
2018-06-23T07:14:32.092Z,71.39
2018-06-23T07:15:32.089Z,72.21
2018-06-23T07:16:32.009Z,71.26
2018-06-23T07:17:31.991Z,72.31
2018-06-23T07:18:31.986Z,71.60
2018-06-23T07:19:32.034Z,71.30
2018-06-23T07:20:31.966Z,72.21
2018-06-23T07:21:31.973Z,71.50
2018-06-23T07:22:31.935Z,71.91
2018-06-23T07:23:31.949Z,71.50
2018-06-23T07:24:31.978Z,71.70
2018-06-23T07:25:31.911Z,71.06
2018-06-23T07:26:31.893Z,71.16
2018-06-23T07:27:31.880Z,70.82
2018-06-23T07:28:31.867Z,70.65
2018-06-23T07:29:31.921Z,71.12
2018-06-23T07:30:31.847Z,69.80
2018-06-23T07:31:31.833Z,70.31
2018-06-23T07:32:31.829Z,70.41
2018-06-23T07:33:31.812Z,71.02
2018-06-23T07:34:31.924Z,70.51
2018-06-23T07:35:31.792Z,69.70
2018-06-23T07:36:31.790Z,69.77
2018-06-23T07:37:31.775Z,70.62
2018-06-23T07:38:31.764Z,70.62
2018-06-23T07:39:31.818Z,70.21
2018-06-23T07:40:31.749Z,70.62
2018-06-23T07:41:31.721Z,69.80
2018-06-23T07:42:31.712Z,68.96
2018-06-23T07:43:31.712Z,69.57
2018-06-23T07:44:31.692Z,69.09
2018-06-23T07:45:31.759Z,69.36
2018-06-23T07:46:31.693Z,69.57
2018-06-23T07:47:31.654Z,69.46
2018-06-23T07:48:31.642Z,69.36
2018-06-23T07:49:31.632Z,70.07
2018-06-23T07:50:31.683Z,68.65
2018-06-23T07:51:31.613Z,69.36
2018-06-23T07:52:31.603Z,69.87
2018-06-23T07:53:31.590Z,69.46
2018-06-23T07:54:31.577Z,68.72
2018-06-23T07:55:31.636Z,68.72
2018-06-23T07:56:31.552Z,68.21
2018-06-23T07:57:31.547Z,68.01
2018-06-23T07:58:31.535Z,66.99
2018-06-23T07:59:31.517Z,67.40
2018-06-23T08:00:31.566Z,68.01
2018-06-23T08:01:31.529Z,67.60
2018-06-23T08:02:31.510Z,67.50
2018-06-23T08:03:31.469Z,68.01
2018-06-23T08:04:31.464Z,68.89
2018-06-23T08:05:31.536Z,67.57
2018-06-23T08:06:31.455Z,68.49
2018-06-23T08:07:31.433Z,66.99
2018-06-23T08:08:31.419Z,68.01
2018-06-23T08:09:31.411Z,67.80
2018-06-23T08:10:31.403Z,67.80
2018-06-23T08:11:31.451Z,67.50
2018-06-23T08:12:31.381Z,67.30
2018-06-23T08:13:31.364Z,67.60
2018-06-23T08:14:31.355Z,67.33
2018-06-23T08:15:31.345Z,68.35
2018-06-23T08:16:31.394Z,67.91
2018-06-23T08:17:31.323Z,67.80
2018-06-23T08:18:31.368Z,68.52
2018-06-23T08:19:31.306Z,68.01
2018-06-23T08:20:31.296Z,67.91
2018-06-23T08:21:31.347Z,68.32
2018-06-23T08:22:31.265Z,67.60
2018-06-23T08:23:31.263Z,68.79
2018-06-23T08:24:31.243Z,68.18
2018-06-23T08:25:31.242Z,68.21
2018-06-23T08:26:31.337Z,68.72
2018-06-23T08:27:31.211Z,68.55
2018-06-23T08:28:31.197Z,68.75
2018-06-23T08:29:31.187Z,69.87
2018-06-23T08:30:31.184Z,69.46
2018-06-23T08:31:31.236Z,70.07
2018-06-23T08:32:31.156Z,69.57
2018-06-23T08:33:31.157Z,69.64
2018-06-23T08:34:31.142Z,69.64
2018-06-23T08:35:31.121Z,69.84
2018-06-23T08:36:31.183Z,69.23
2018-06-23T08:37:31.100Z,69.64
2018-06-23T08:38:31.088Z,70.35
2018-06-23T08:39:31.075Z,70.65
2018-06-23T08:40:31.060Z,70.04
2018-06-23T08:41:31.115Z,70.75
2018-06-23T08:42:31.041Z,71.57
2018-06-23T08:43:31.029Z,70.86
2018-06-23T08:44:31.017Z,71.47
2018-06-23T08:45:31.009Z,71.50
2018-06-23T08:46:31.049Z,71.60
2018-06-23T08:47:30.992Z,71.80
2018-06-23T08:48:30.988Z,72.72
2018-06-23T08:49:30.970Z,72.92
2018-06-23T08:50:30.959Z,73.02
2018-06-23T08:51:31.009Z,73.43
2018-06-23T08:52:30.930Z,73.57
2018-06-23T08:53:30.918Z,74.38
2018-06-23T08:54:30.926Z,74.62
2018-06-23T08:55:30.891Z,73.71
2018-06-23T08:56:30.941Z,73.19
2018-06-23T08:57:30.871Z,74.72
2018-06-23T08:58:30.867Z,74.62
2018-06-23T08:59:30.843Z,75.43
2018-06-23T09:00:30.843Z,75.95
2018-06-23T09:01:30.905Z,75.33
2018-06-23T09:02:30.821Z,75.43
2018-06-23T09:03:30.807Z,75.54
2018-06-23T09:04:30.797Z,75.81
2018-06-23T09:05:30.795Z,74.38
2018-06-23T09:06:30.833Z,75.30
2018-06-23T09:07:30.764Z,74.79
2018-06-23T09:08:30.750Z,74.48
2018-06-23T09:09:30.800Z,74.79
2018-06-23T09:10:30.734Z,74.24
2018-06-23T09:11:30.800Z,74.11
2018-06-23T09:12:30.722Z,73.80
2018-06-23T09:13:30.744Z,71.94
2018-06-23T09:14:30.687Z,72.55
2018-06-23T09:15:30.675Z,72.34
2018-06-23T09:16:30.732Z,72.45
2018-06-23T09:17:30.652Z,71.80
2018-06-23T09:18:30.644Z,71.67
2018-06-23T09:19:30.665Z,70.68
2018-06-23T09:20:30.611Z,71.16
2018-06-23T09:21:30.611Z,70.04
2018-06-23T09:22:30.661Z,69.54
2018-06-23T09:23:30.580Z,69.74
2018-06-23T09:24:30.581Z,71.09
2018-06-23T09:25:30.635Z,70.45
2018-06-23T09:26:30.550Z,70.25
2018-06-23T09:27:30.599Z,69.74
2018-06-23T09:28:30.527Z,69.71
2018-06-23T09:29:30.519Z,69.20
2018-06-23T09:30:30.557Z,70.08
2018-06-23T09:31:30.496Z,68.59
2018-06-23T09:32:30.566Z,69.81
2018-06-23T09:33:30.477Z,69.40
2018-06-23T09:34:30.468Z,69.81
2018-06-23T09:35:30.463Z,69.78
2018-06-23T09:36:30.449Z,68.66
2018-06-23T09:37:30.492Z,68.46
2018-06-23T09:38:30.424Z,67.00
2018-06-23T09:39:30.404Z,67.11
2018-06-23T09:40:30.399Z,67.08
2018-06-23T09:41:30.394Z,66.57
2018-06-23T09:42:30.429Z,65.15
2018-06-23T09:43:30.365Z,66.16
2018-06-23T09:44:30.361Z,64.92
2018-06-23T09:45:30.335Z,65.02
2018-06-23T09:46:30.326Z,65.73
2018-06-23T09:47:30.382Z,63.81
2018-06-23T09:48:30.312Z,63.40
2018-06-23T09:49:30.318Z,65.12
2018-06-23T09:50:30.293Z,62.89
2018-06-23T09:51:30.267Z,62.96
2018-06-23T09:52:30.326Z,61.55
2018-06-23T09:53:30.278Z,61.79
2018-06-23T09:54:30.240Z,61.99
2018-06-23T09:55:30.237Z,61.59
2018-06-23T09:56:30.218Z,60.48
2018-06-23T09:57:30.286Z,60.88
2018-06-23T09:58:30.216Z,60.38
2018-06-23T09:59:30.191Z,61.82
2018-06-23T10:00:30.174Z,61.92
2018-06-23T10:01:30.164Z,61.32
2018-06-23T10:02:30.166Z,61.95
2018-06-23T10:03:30.202Z,61.27
2018-06-23T10:04:30.137Z,60.97
2018-06-23T10:05:30.117Z,60.97
2018-06-23T10:06:30.111Z,62.08
2018-06-23T10:07:30.100Z,61.88
2018-06-23T10:08:30.168Z,62.59
2018-06-23T10:09:30.072Z,62.38
2018-06-23T10:10:30.064Z,62.82
2018-06-23T10:11:30.054Z,61.80
2018-06-23T10:12:30.045Z,62.41
2018-06-23T10:13:30.099Z,63.46
2018-06-23T10:14:30.020Z,63.46
2018-06-23T10:15:30.062Z,63.53
2018-06-23T10:16:29.998Z,63.43
2018-06-23T10:17:29.989Z,63.02
2018-06-23T10:18:30.037Z,62.89
2018-06-23T10:19:29.980Z,62.76
2018-06-23T10:20:29.968Z,61.72
2018-06-23T10:21:29.972Z,60.88
2018-06-23T10:22:29.933Z,61.49
2018-06-23T10:23:29.986Z,59.56
2018-06-23T10:24:29.945Z,61.49
2018-06-23T10:25:29.894Z,59.77
2018-06-23T10:26:29.888Z,59.92
2018-06-23T10:27:30.046Z,60.94
2018-06-23T10:28:29.927Z,61.27
2018-06-23T10:29:29.866Z,60.46
2018-06-23T10:30:29.841Z,60.86
2018-06-23T10:31:29.833Z,62.08
2018-06-23T10:32:29.823Z,60.46
2018-06-23T10:33:29.872Z,60.69
2018-06-23T10:34:29.797Z,60.19
2018-06-23T10:35:29.792Z,60.89
2018-06-23T10:36:29.779Z,61.51
2018-06-23T10:37:29.763Z,61.83
2018-06-23T10:38:29.767Z,62.34
2018-06-23T10:39:29.829Z,62.41
2018-06-23T10:40:29.738Z,62.14
2018-06-23T10:41:29.727Z,62.01
2018-06-23T10:42:29.712Z,62.31
2018-06-23T10:43:29.729Z,62.75
2018-06-23T10:44:29.744Z,63.35
2018-06-23T10:45:29.677Z,63.02
2018-06-23T10:46:29.667Z,62.92
2018-06-23T10:47:29.663Z,63.53
2018-06-23T10:48:29.646Z,63.43
2018-06-23T10:49:29.706Z,63.53
2018-06-23T10:50:29.620Z,62.82
2018-06-23T10:51:29.614Z,63.53
2018-06-23T10:52:29.697Z,63.12
2018-06-23T10:53:29.588Z,63.32
2018-06-23T10:54:29.647Z,62.99
2018-06-23T10:55:29.563Z,62.99
2018-06-23T10:56:29.553Z,62.89
2018-06-23T10:57:29.541Z,62.05
2018-06-23T10:58:29.534Z,61.82
2018-06-23T10:59:29.604Z,60.91
2018-06-23T11:00:29.511Z,59.70
2018-06-23T11:01:29.496Z,60.20
2018-06-23T11:02:29.488Z,60.88
2018-06-23T11:03:29.482Z,60.27
2018-06-23T11:04:29.533Z,59.67
2018-06-23T11:05:29.445Z,58.96
2018-06-23T11:06:29.445Z,59.19
2018-06-23T11:07:29.437Z,59.29
2018-06-23T11:08:29.427Z,60.81
2018-06-23T11:09:29.485Z,61.11
2018-06-23T11:10:29.403Z,61.32
2018-06-23T11:11:29.388Z,60.71
2018-06-23T11:12:29.384Z,60.81
2018-06-23T11:13:29.378Z,60.61
2018-06-23T11:14:29.356Z,61.92
2018-06-23T11:15:29.418Z,61.62
2018-06-23T11:16:29.345Z,61.32
2018-06-23T11:17:29.321Z,61.92
2018-06-23T11:18:29.312Z,62.93
2018-06-23T11:19:29.297Z,62.02
2018-06-23T11:20:29.349Z,60.81
2018-06-23T11:21:29.285Z,61.75
2018-06-23T11:22:29.273Z,61.72
2018-06-23T11:23:29.255Z,61.08
2018-06-23T11:24:29.312Z,60.88
2018-06-23T11:25:29.295Z,59.77
2018-06-23T11:26:29.235Z,60.45
2018-06-23T11:27:29.209Z,60.14
2018-06-23T11:28:29.201Z,59.71
2018-06-23T11:29:29.202Z,59.00
2018-06-23T11:30:29.240Z,59.41
2018-06-23T11:31:29.165Z,60.29
2018-06-23T11:32:29.154Z,59.99
2018-06-23T11:33:29.144Z,60.29
2018-06-23T11:34:29.142Z,59.66
2018-06-23T11:35:29.199Z,59.48
2018-06-23T11:36:29.115Z,59.28
2018-06-23T11:37:29.099Z,59.35
2018-06-23T11:38:29.093Z,59.45
2018-06-23T11:39:29.078Z,59.08
2018-06-23T11:40:29.066Z,59.28
2018-06-23T11:41:29.119Z,59.18
2018-06-23T11:42:29.049Z,59.89
2018-06-23T11:43:29.038Z,59.08
2018-06-23T11:44:29.030Z,59.18
2018-06-23T11:45:29.015Z,59.11
2018-06-23T11:46:29.121Z,59.21
2018-06-23T11:47:28.988Z,60.25
2018-06-23T11:48:28.988Z,60.62
2018-06-23T11:49:28.968Z,60.72
2018-06-23T11:50:28.958Z,59.69
2018-06-23T11:51:29.007Z,59.69
2018-06-23T11:52:28.969Z,59.48
2018-06-23T11:53:28.933Z,59.69
2018-06-23T11:54:28.913Z,60.80
2018-06-23T11:55:28.914Z,60.26
2018-06-23T11:56:28.958Z,59.86
2018-06-23T11:57:28.882Z,59.45
2018-06-23T11:58:28.884Z,58.34
2018-06-23T11:59:28.878Z,59.28
2018-06-23T12:00:28.843Z,59.89
2018-06-23T12:01:28.898Z,59.78
2018-06-23T12:02:28.828Z,59.35
2018-06-23T12:03:28.812Z,59.33
2018-06-23T12:04:28.808Z,59.22
2018-06-23T12:05:28.799Z,59.22
2018-06-23T12:06:28.846Z,59.12
2018-06-23T12:07:28.776Z,59.12
2018-06-23T12:08:28.764Z,59.45
2018-06-23T12:09:28.760Z,59.25
2018-06-23T12:10:28.747Z,59.35
2018-06-23T12:11:28.822Z,59.05
2018-06-23T12:12:28.718Z,59.38
2018-06-23T12:13:28.712Z,59.38
2018-06-23T12:14:28.694Z,59.61
2018-06-23T12:15:28.684Z,60.32
2018-06-23T12:16:28.675Z,59.99
2018-06-23T12:17:28.730Z,60.49
2018-06-23T12:18:28.647Z,60.16
2018-06-23T12:19:28.638Z,60.24
2018-06-23T12:20:28.620Z,60.64
2018-06-23T12:21:28.617Z,59.53
2018-06-23T12:22:28.684Z,59.12
2018-06-23T12:23:28.602Z,59.15
2018-06-23T12:24:28.600Z,59.76
2018-06-23T12:25:28.606Z,59.02
2018-06-23T12:26:28.564Z,59.63
2018-06-23T12:27:28.624Z,59.33
2018-06-23T12:28:28.542Z,59.15
2018-06-23T12:29:28.529Z,59.08
2018-06-23T12:30:28.542Z,59.51
2018-06-23T12:31:28.533Z,60.12
2018-06-23T12:32:28.571Z,60.65
2018-06-23T12:33:28.495Z,60.85
2018-06-23T12:34:28.498Z,61.08
2018-06-23T12:35:28.466Z,61.29
2018-06-23T12:36:28.456Z,62.40
2018-06-23T12:37:28.512Z,62.60
2018-06-23T12:38:28.434Z,62.19
2018-06-23T12:39:28.424Z,62.50
2018-06-23T12:40:28.411Z,62.70
2018-06-23T12:41:28.417Z,62.93
2018-06-23T12:42:28.400Z,63.24
2018-06-23T12:43:28.437Z,63.47
2018-06-23T12:44:28.367Z,63.37
2018-06-23T12:45:28.356Z,63.27
2018-06-23T12:46:28.348Z,63.37
2018-06-23T12:47:28.341Z,63.40
2018-06-23T12:48:28.467Z,63.30
2018-06-23T12:49:28.310Z,64.72
2018-06-23T12:50:28.303Z,63.47
2018-06-23T12:51:28.288Z,63.78
2018-06-23T12:52:28.284Z,63.67